createdAt,value
2022-12-01T00:03:40.245Z,104123.50
2022-12-01T00:09:06.108Z,104134.13
2022-12-01T00:14:08.641Z,104125.22
2022-12-01T00:19:19.792Z,104123.44
2022-12-01T00:24:23.789Z,104118.59
2022-12-01T00:29:26.299Z,104120.66
2022-12-01T00:34:29.040Z,104120.94
2022-12-01T00:39:31.536Z,104119.91
2022-12-01T00:44:33.896Z,104117.28
2022-12-01T00:49:36.373Z,104131.00
2022-12-01T00:54:38.642Z,104121.81
2022-12-01T00:59:42.538Z,104124.66
2022-12-01T01:04:45.084Z,104119.19
2022-12-01T01:09:47.996Z,104107.50
2022-12-01T01:14:50.775Z,104107.88
2022-12-01T01:19:53.978Z,104102.88
2022-12-01T01:24:56.417Z,104096.00
2022-12-01T01:29:58.888Z,104094.22
2022-12-01T01:35:01.411Z,104092.03
2022-12-01T01:40:06.119Z,104075.94
2022-12-01T01:45:22.508Z,104075.16
2022-12-01T01:50:28.666Z,104093.03
2022-12-01T01:55:34.014Z,104106.97
2022-12-01T02:00:38.420Z,104102.50
2022-12-01T02:05:43.379Z,104102.28
2022-12-01T02:11:05.208Z,104100.09
2022-12-01T02:16:27.352Z,104094.66
2022-12-01T02:22:01.784Z,104115.03
2022-12-01T02:27:22.198Z,104113.00
2022-12-01T02:32:47.635Z,104124.97
2022-12-01T02:38:06.994Z,104114.78
2022-12-01T02:43:44.028Z,104118.00
2022-12-01T02:48:50.690Z,104119.91
2022-12-01T02:53:55.287Z,104116.75
2022-12-01T02:58:57.783Z,104124.97
2022-12-01T03:04:03.348Z,104124.31
2022-12-01T03:09:20.839Z,104131.22
2022-12-01T03:14:47.896Z,104129.31
2022-12-01T03:20:08.995Z,104133.50
2022-12-01T03:25:14.166Z,104136.41
2022-12-01T03:30:17.537Z,104130.47
2022-12-01T03:35:54.625Z,104140.53
2022-12-01T03:41:02.399Z,104147.06
2022-12-01T03:46:10.972Z,104147.78
2022-12-01T03:51:20.084Z,104152.50
2022-12-01T03:56:26.903Z,104155.16
2022-12-01T04:01:34.128Z,104154.59
2022-12-01T04:06:36.957Z,104153.88
2022-12-01T04:11:58.067Z,104161.41
2022-12-01T04:17:00.511Z,104154.81
2022-12-01T04:22:03.913Z,104140.31
2022-12-01T04:27:06.499Z,104155.09
2022-12-01T04:32:09.143Z,104154.78
2022-12-01T04:37:12.459Z,104157.00
2022-12-01T04:42:14.945Z,104166.19
2022-12-01T04:47:17.467Z,104167.63
2022-12-01T04:52:19.911Z,104175.13
2022-12-01T04:57:22.441Z,104180.25
2022-12-01T05:02:25.069Z,104171.91
2022-12-01T05:07:27.612Z,104182.56
2022-12-01T05:12:30.219Z,104177.75
2022-12-01T05:17:36.735Z,104195.69
2022-12-01T05:23:04.236Z,104194.41
2022-12-01T05:28:02.056Z,104197.81
2022-12-01T05:33:04.454Z,104194.16
2022-12-01T05:38:08.277Z,104187.41
2022-12-01T05:43:10.901Z,104193.94
2022-12-01T05:48:13.405Z,104201.06
2022-12-01T05:53:16.269Z,104202.81
2022-12-01T05:58:18.796Z,104191.94
2022-12-01T06:03:21.382Z,104200.56
2022-12-01T06:08:23.957Z,104195.38
2022-12-01T06:13:26.528Z,104200.34
2022-12-01T06:18:32.168Z,104198.09
2022-12-01T06:23:34.957Z,104191.53
2022-12-01T06:28:37.427Z,104201.94
2022-12-01T06:33:39.932Z,104203.56
2022-12-01T06:38:42.519Z,104184.75
2022-12-01T06:43:45.025Z,104198.06
2022-12-01T06:48:50.781Z,104205.56
2022-12-01T06:53:59.731Z,104203.53
2022-12-01T06:59:04.808Z,104202.63
2022-12-01T07:04:07.682Z,104193.25
2022-12-01T07:09:10.384Z,104177.06
2022-12-01T07:14:33.109Z,104175.78
2022-12-01T07:19:36.359Z,104184.22
2022-12-01T07:24:38.886Z,104191.06
2022-12-01T07:29:41.522Z,104181.63
2022-12-01T07:34:43.987Z,104183.34
2022-12-01T07:39:46.742Z,104186.00
2022-12-01T07:44:49.451Z,104179.94
2022-12-01T07:49:52.055Z,104182.59
2022-12-01T07:55:11.875Z,104175.50
2022-12-01T08:00:15.406Z,104174.38
2022-12-01T08:05:17.981Z,104159.09
2022-12-01T08:10:20.558Z,104145.22
2022-12-01T08:15:23.171Z,104142.41
2022-12-01T08:20:25.876Z,104140.06
2022-12-01T08:25:31.297Z,104112.91
2022-12-01T08:30:33.780Z,104126.44
2022-12-01T08:35:37.464Z,104121.78
2022-12-01T08:41:02.792Z,104124.22
2022-12-01T08:46:07.028Z,104126.59
2022-12-01T08:51:15.795Z,104117.78
2022-12-01T08:56:39.269Z,104115.31
2022-12-01T09:01:53.821Z,104103.41
2022-12-01T09:06:57.507Z,104104.53
2022-12-01T09:11:59.996Z,104100.22
2022-12-01T09:17:02.486Z,104094.91
2022-12-01T09:22:04.983Z,104088.19
2022-12-01T09:27:07.484Z,104076.59
2022-12-01T09:32:10.018Z,104078.03
2022-12-01T09:37:12.627Z,104073.84
2022-12-01T09:42:18.916Z,104063.91
2022-12-01T09:47:24.241Z,104063.72
2022-12-01T09:52:29.549Z,104057.28
2022-12-01T09:57:35.624Z,104053.22
2022-12-01T10:03:03.582Z,104055.41
2022-12-01T10:08:12.494Z,104038.84
2022-12-01T10:13:21.291Z,104041.97
2022-12-01T10:18:53.105Z,104049.34
2022-12-01T10:24:23.369Z,104040.59
2022-12-01T10:30:08.608Z,104031.69
2022-12-01T10:35:19.218Z,104042.50
2022-12-01T10:40:21.874Z,104043.81
2022-12-01T10:45:27.745Z,104041.53
2022-12-01T10:50:30.692Z,104048.97
2022-12-01T10:55:40.884Z,104034.72
2022-12-01T11:01:00.265Z,104051.00
2022-12-01T11:06:07.128Z,104046.22
2022-12-01T11:11:29.416Z,104038.72
2022-12-01T11:16:42.764Z,104042.41
2022-12-01T11:21:53.977Z,104041.94
2022-12-01T11:27:16.436Z,104036.81
2022-12-01T11:32:25.638Z,104023.47
2022-12-01T11:38:13.205Z,104021.97
2022-12-01T11:43:25.793Z,104028.00
2022-12-01T11:48:31.399Z,104016.13
2022-12-01T11:53:40.392Z,104016.16
2022-12-01T11:58:44.554Z,104019.50
2022-12-01T12:04:23.518Z,104020.34
2022-12-01T12:09:29.283Z,104020.06
2022-12-01T12:14:57.947Z,104014.06
2022-12-01T12:20:08.195Z,104007.94
2022-12-01T12:25:48.666Z,104010.22
2022-12-01T12:31:28.715Z,104002.41
2022-12-01T12:37:08.582Z,104003.09
2022-12-01T12:42:56.555Z,103986.34
2022-12-01T12:48:29.083Z,104006.84
2022-12-01T12:53:43.905Z,104005.16
2022-12-01T12:59:03.477Z,103997.09
2022-12-01T13:04:14.189Z,104000.59
2022-12-01T13:09:28.148Z,104001.22
2022-12-01T13:14:39.065Z,103985.31
2022-12-01T13:19:50.478Z,104012.91
2022-12-01T13:24:53.102Z,104010.94
2022-12-01T13:29:56.893Z,104001.59
2022-12-01T13:35:00.998Z,104012.81
2022-12-01T13:40:23.084Z,104002.09
2022-12-01T13:45:26.021Z,104002.00
2022-12-01T13:50:44.099Z,104010.41
2022-12-01T13:56:03.390Z,104010.41
2022-12-01T14:01:21.707Z,104015.94
2022-12-01T14:06:28.842Z,104009.50
2022-12-01T14:11:34.497Z,104011.97
2022-12-01T14:17:02.795Z,104011.94
2022-12-01T14:22:26.711Z,104012.81
2022-12-01T14:27:39.028Z,104007.78
2022-12-01T14:32:41.589Z,104011.97
2022-12-01T14:37:47.832Z,104013.66
2022-12-01T14:43:12.541Z,104017.31
2022-12-01T14:48:21.871Z,104024.13
2022-12-01T14:53:36.590Z,104014.56
2022-12-01T14:58:39.241Z,104015.09
2022-12-01T15:03:54.067Z,104014.97
2022-12-01T15:09:33.363Z,104015.13
2022-12-01T15:14:48.688Z,104007.97
2022-12-01T15:19:51.722Z,104019.69
2022-12-01T15:25:13.979Z,104024.69
2022-12-01T15:30:19.112Z,104026.56
2022-12-01T15:35:23.503Z,104026.19
2022-12-01T15:46:02.194Z,104024.53
2022-12-01T15:51:16.568Z,104028.78
2022-12-01T15:56:26.992Z,104025.88
2022-12-01T16:01:31.971Z,104022.06
2022-12-01T16:06:38.458Z,104036.88
2022-12-01T16:11:41.036Z,104027.97
2022-12-01T16:16:51.654Z,104023.69
2022-12-01T16:22:05.449Z,104032.25
2022-12-01T16:27:16.936Z,104027.91
2022-12-01T16:32:25.192Z,104001.72
2022-12-01T16:37:27.932Z,104017.28
2022-12-01T16:42:30.403Z,104031.44
2022-12-01T16:47:33.026Z,104030.44
2022-12-01T16:52:44.037Z,104033.84
2022-12-01T16:57:47.578Z,104024.88
2022-12-01T17:02:50.335Z,104023.28
2022-12-01T17:07:54.159Z,104032.06
2022-12-01T17:12:57.355Z,104027.41
2022-12-01T17:17:59.813Z,104017.72
2022-12-01T17:23:02.408Z,104020.53
2022-12-01T17:28:04.905Z,104017.16
2022-12-01T17:33:07.376Z,104018.72
2022-12-01T17:38:12.815Z,104038.44
2022-12-01T17:43:15.516Z,104033.94
2022-12-01T17:48:18.040Z,104020.50
2022-12-01T17:53:20.705Z,104024.16
2022-12-01T17:58:23.312Z,104018.78
2022-12-01T18:03:25.849Z,104026.97
2022-12-01T18:08:30.226Z,104020.69
2022-12-01T18:13:35.296Z,104024.84
2022-12-01T18:18:38.800Z,104017.28
2022-12-01T18:23:41.275Z,104015.81
2022-12-01T18:28:44.471Z,104005.72
2022-12-01T18:33:46.931Z,104014.44
2022-12-01T18:38:50.646Z,104006.72
2022-12-01T18:43:53.099Z,104017.09
2022-12-01T18:49:07.077Z,104023.47
2022-12-01T18:54:12.873Z,104020.44
2022-12-01T18:59:17.543Z,104020.34
2022-12-01T19:04:20.473Z,104021.19
2022-12-01T19:09:23.267Z,104024.88
2022-12-01T19:14:30.538Z,104017.16
2022-12-01T19:19:37.335Z,104025.50
2022-12-01T19:24:40.461Z,104022.72
2022-12-01T19:29:43.078Z,104015.41
2022-12-01T19:34:45.847Z,104020.69
2022-12-01T19:39:48.324Z,104013.44
2022-12-01T19:44:51.018Z,104015.88
2022-12-01T19:49:53.625Z,104021.56
2022-12-01T19:54:56.317Z,104015.66
2022-12-01T19:59:58.914Z,104010.94
2022-12-01T20:05:01.584Z,104006.56
2022-12-01T20:10:06.643Z,104010.94
2022-12-01T20:15:09.707Z,104010.47
2022-12-01T20:20:13.012Z,104011.69
2022-12-01T20:25:15.529Z,104010.94
2022-12-01T20:30:18.087Z,104009.44
2022-12-01T20:35:20.639Z,104008.97
2022-12-01T20:40:23.306Z,104008.03
2022-12-01T20:45:28.622Z,104011.47
2022-12-01T20:50:31.121Z,103986.63
2022-12-01T20:55:36.573Z,103998.00
2022-12-01T21:00:44.576Z,104015.50
2022-12-01T21:05:47.102Z,103995.69
2022-12-01T21:10:49.565Z,104001.63
2022-12-01T21:16:01.813Z,103979.22
2022-12-01T21:21:22.804Z,103989.03
2022-12-01T21:26:26.259Z,103999.38
2022-12-01T21:31:29.386Z,104003.84
2022-12-01T21:36:31.888Z,103994.56
2022-12-01T21:41:34.563Z,103994.06
2022-12-01T21:46:40.023Z,103999.31
2022-12-01T21:51:42.619Z,103998.25
2022-12-01T21:56:45.687Z,103995.00
2022-12-01T22:01:53.933Z,103992.06
2022-12-01T22:06:57.803Z,103990.06
2022-12-01T22:12:24.816Z,103970.75
2022-12-01T22:17:28.361Z,103996.34
2022-12-01T22:22:33.046Z,103981.66
2022-12-01T22:27:39.661Z,103982.41
2022-12-01T22:32:57.597Z,103985.66
2022-12-01T22:38:09.033Z,103989.16
2022-12-01T22:43:17.556Z,103980.56
2022-12-01T22:48:22.971Z,103976.13
2022-12-01T22:53:31.449Z,103989.66
2022-12-01T22:58:41.229Z,103981.59
2022-12-01T23:03:43.684Z,103983.16
2022-12-01T23:08:46.688Z,103984.00
2022-12-01T23:13:49.182Z,103994.19
2022-12-01T23:18:51.583Z,103994.94
2022-12-01T23:23:54.118Z,103987.66
2022-12-01T23:28:58.847Z,103980.75
2022-12-01T23:34:01.570Z,103990.06
2022-12-01T23:39:11.826Z,103984.13
2022-12-01T23:44:41.207Z,103972.72
2022-12-01T23:49:45.043Z,103985.50
2022-12-01T23:54:48.719Z,103976.16
